createdAt,value
2022-08-30T00:02:14.485Z,21.08
2022-08-30T00:04:40.861Z,20.99
2022-08-30T00:07:07.257Z,20.91
2022-08-30T00:09:33.631Z,21.00
2022-08-30T00:12:00.064Z,21.03
2022-08-30T00:14:27.467Z,20.96
2022-08-30T00:16:53.858Z,20.62
2022-08-30T00:19:20.218Z,20.81
2022-08-30T00:21:46.570Z,20.64
2022-08-30T00:24:12.926Z,20.53
2022-08-30T00:26:39.275Z,20.43
2022-08-30T00:29:05.650Z,20.85
2022-08-30T00:31:32.041Z,20.81
2022-08-30T00:33:58.418Z,20.58
2022-08-30T00:36:24.770Z,20.61
2022-08-30T00:38:51.153Z,20.70
2022-08-30T00:41:17.529Z,20.61
2022-08-30T00:43:43.947Z,20.40
2022-08-30T00:46:10.529Z,20.40
2022-08-30T00:48:37.952Z,20.49
2022-08-30T00:51:07.470Z,20.28
2022-08-30T00:53:37.664Z,20.33
2022-08-30T00:56:04.140Z,20.43
2022-08-30T00:58:37.466Z,20.67
2022-08-30T01:01:04.391Z,20.74
2022-08-30T01:03:30.779Z,20.65
2022-08-30T01:05:57.134Z,20.63
2022-08-30T01:08:23.486Z,20.45
2022-08-30T01:10:50.140Z,20.32
2022-08-30T01:13:16.569Z,20.35
2022-08-30T01:15:43.190Z,20.38
2022-08-30T01:18:11.512Z,20.32
2022-08-30T01:20:54.649Z,20.27
2022-08-30T01:23:21.022Z,20.40
2022-08-30T01:25:47.985Z,20.55
2022-08-30T01:28:15.551Z,20.38
2022-08-30T01:30:43.001Z,20.38
2022-08-30T01:33:09.661Z,20.16
2022-08-30T01:35:44.125Z,20.16
2022-08-30T01:38:10.878Z,20.36
2022-08-30T01:40:37.369Z,20.44
2022-08-30T01:43:03.806Z,20.56
2022-08-30T01:45:30.182Z,20.55
2022-08-30T01:47:56.569Z,20.38
2022-08-30T01:50:26.208Z,20.33
2022-08-30T01:52:52.574Z,20.42
2022-08-30T01:55:19.548Z,20.64
2022-08-30T01:57:46.968Z,20.53
2022-08-30T02:00:13.474Z,20.39
2022-08-30T02:02:39.835Z,20.26
2022-08-30T02:05:06.875Z,20.25
2022-08-30T02:07:33.246Z,20.29
2022-08-30T02:09:59.600Z,20.35
2022-08-30T02:12:25.972Z,20.40
2022-08-30T02:14:52.332Z,20.30
2022-08-30T02:17:19.425Z,20.34
2022-08-30T02:19:45.781Z,20.55
2022-08-30T02:22:12.125Z,20.38
2022-08-30T02:24:38.520Z,20.16
2022-08-30T02:27:04.990Z,20.34
2022-08-30T02:29:31.336Z,20.46
2022-08-30T02:31:57.685Z,20.48
2022-08-30T02:34:24.046Z,20.45
2022-08-30T02:36:50.506Z,20.37
2022-08-30T02:39:16.862Z,20.46
2022-08-30T02:41:43.229Z,20.36
2022-08-30T02:44:10.714Z,20.21
2022-08-30T02:46:37.098Z,20.18
2022-08-30T02:49:23.770Z,20.30
2022-08-30T02:51:49.783Z,20.25
2022-08-30T02:54:19.835Z,20.22
2022-08-30T02:56:47.153Z,20.15
2022-08-30T02:59:13.979Z,20.25
2022-08-30T03:01:40.447Z,20.05
2022-08-30T03:04:06.920Z,20.06
2022-08-30T03:06:33.578Z,20.15
2022-08-30T03:08:59.974Z,20.28
2022-08-30T03:11:26.735Z,20.08
2022-08-30T03:13:53.098Z,20.30
2022-08-30T03:16:19.550Z,20.21
2022-08-30T03:18:45.953Z,19.93
2022-08-30T03:21:12.759Z,20.07
2022-08-30T03:23:40.782Z,20.09
2022-08-30T03:26:07.537Z,20.02
2022-08-30T03:28:34.098Z,19.91
2022-08-30T03:31:00.450Z,19.95
2022-08-30T03:33:26.818Z,19.94
2022-08-30T03:35:53.767Z,19.76
2022-08-30T03:38:20.152Z,19.76
2022-08-30T03:40:46.542Z,19.88
2022-08-30T03:43:13.251Z,19.92
2022-08-30T03:45:39.702Z,19.99
2022-08-30T03:48:06.095Z,19.94
2022-08-30T03:50:32.453Z,19.93
2022-08-30T03:53:01.376Z,19.80
2022-08-30T03:55:28.491Z,19.71
2022-08-30T03:57:54.895Z,19.74
2022-08-30T04:00:22.198Z,19.89
2022-08-30T04:02:48.565Z,19.79
2022-08-30T04:05:14.921Z,19.80
2022-08-30T04:07:45.455Z,19.82
2022-08-30T04:10:11.835Z,19.80
2022-08-30T04:12:38.784Z,20.06
2022-08-30T04:15:05.425Z,20.46
2022-08-30T04:17:31.807Z,20.11
2022-08-30T04:19:58.173Z,19.88
2022-08-30T04:22:24.532Z,19.46
2022-08-30T04:24:50.910Z,19.23
2022-08-30T04:27:20.219Z,19.08
2022-08-30T04:29:47.161Z,19.02
2022-08-30T04:32:13.607Z,18.88
2022-08-30T04:34:39.961Z,18.91
2022-08-30T04:37:07.079Z,18.88
2022-08-30T04:39:36.361Z,18.91
2022-08-30T04:42:03.410Z,18.77
2022-08-30T04:44:29.788Z,18.74
2022-08-30T04:46:56.198Z,18.78
2022-08-30T04:49:22.915Z,18.70
2022-08-30T04:51:49.295Z,18.69
2022-08-30T04:54:15.654Z,18.69
2022-08-30T04:56:43.641Z,18.78
2022-08-30T04:59:10.013Z,18.78
2022-08-30T05:01:45.103Z,18.87
2022-08-30T05:04:12.355Z,18.91
2022-08-30T05:06:38.759Z,19.09
2022-08-30T05:09:05.541Z,18.98
2022-08-30T05:11:31.923Z,18.94
2022-08-30T05:13:58.275Z,18.97
2022-08-30T05:16:24.701Z,19.04
2022-08-30T05:18:51.731Z,19.05
2022-08-30T05:21:22.010Z,19.09
2022-08-30T05:23:48.392Z,19.12
2022-08-30T05:26:15.966Z,19.10
2022-08-30T05:28:42.442Z,19.12
2022-08-30T05:31:14.030Z,19.13
2022-08-30T05:33:40.595Z,19.10
2022-08-30T05:36:07.402Z,19.33
2022-08-30T05:38:33.758Z,20.29
2022-08-30T05:41:00.141Z,20.87
2022-08-30T05:43:26.807Z,21.16
2022-08-30T05:46:03.037Z,21.30
2022-08-30T05:48:29.473Z,21.36
2022-08-30T05:51:02.957Z,21.36
2022-08-30T05:53:29.304Z,21.30
2022-08-30T05:55:55.679Z,21.30
2022-08-30T05:58:22.049Z,21.37
2022-08-30T06:00:48.441Z,21.40
2022-08-30T06:03:14.861Z,21.42
2022-08-30T06:05:41.338Z,21.43
2022-08-30T06:08:07.785Z,21.40
2022-08-30T06:10:34.147Z,21.34
2022-08-30T06:13:00.508Z,21.30
2022-08-30T06:15:26.954Z,21.28
2022-08-30T06:17:53.420Z,21.24
2022-08-30T06:20:20.361Z,21.18
2022-08-30T06:22:46.773Z,21.20
2022-08-30T06:25:13.158Z,21.17
2022-08-30T06:27:39.544Z,21.19
2022-08-30T06:30:08.211Z,21.20
2022-08-30T06:32:34.791Z,21.29
2022-08-30T06:35:01.145Z,21.38
2022-08-30T06:37:29.582Z,21.38
2022-08-30T06:39:57.413Z,21.32
2022-08-30T06:42:24.400Z,21.66
2022-08-30T06:44:50.934Z,21.85
2022-08-30T06:47:17.869Z,21.26
2022-08-30T06:49:44.225Z,21.51
2022-08-30T06:52:10.773Z,21.64
2022-08-30T06:54:37.382Z,21.55
2022-08-30T06:57:03.785Z,21.85
2022-08-30T06:59:31.478Z,21.48
2022-08-30T07:01:58.001Z,21.31
2022-08-30T07:04:24.458Z,21.26
2022-08-30T07:06:50.845Z,21.20
2022-08-30T07:09:17.289Z,21.72
2022-08-30T07:11:44.666Z,21.85
2022-08-30T07:14:11.026Z,21.93
2022-08-30T07:16:37.562Z,21.94
2022-08-30T07:19:04.371Z,21.97
2022-08-30T07:21:34.341Z,22.01
2022-08-30T07:24:00.707Z,21.93
2022-08-30T07:26:33.888Z,21.79
2022-08-30T07:29:00.331Z,21.61
2022-08-30T07:31:26.703Z,21.95
2022-08-30T07:33:53.208Z,22.11
2022-08-30T07:36:19.586Z,21.89
2022-08-30T07:38:46.047Z,21.74
2022-08-30T07:41:23.163Z,21.66
2022-08-30T07:43:49.689Z,21.52
2022-08-30T07:46:16.296Z,21.56
2022-08-30T07:48:42.674Z,21.59
2022-08-30T07:51:11.942Z,21.61
2022-08-30T07:53:38.354Z,21.59
2022-08-30T07:56:05.626Z,21.58
2022-08-30T07:58:32.006Z,21.66
2022-08-30T08:00:59.528Z,21.44
2022-08-30T08:03:26.442Z,21.33
2022-08-30T08:05:53.284Z,21.30
2022-08-30T08:08:19.797Z,21.24
2022-08-30T08:10:46.386Z,21.23
2022-08-30T08:13:12.779Z,21.22
2022-08-30T08:15:39.241Z,21.29
2022-08-30T08:18:05.745Z,21.29
2022-08-30T08:20:32.726Z,21.32
2022-08-30T08:22:59.088Z,21.30
2022-08-30T08:25:25.428Z,21.32
2022-08-30T08:27:52.008Z,21.29
2022-08-30T08:30:19.168Z,21.34
2022-08-30T08:32:45.546Z,21.30
2022-08-30T08:35:11.927Z,21.40
2022-08-30T08:37:38.534Z,21.44
2022-08-30T08:40:05.447Z,21.42
2022-08-30T08:42:40.869Z,21.45
2022-08-30T08:45:11.396Z,21.46
2022-08-30T08:47:41.941Z,21.47
2022-08-30T08:50:11.298Z,21.46
2022-08-30T08:53:06.989Z,21.43
2022-08-30T08:55:33.363Z,21.44
2022-08-30T08:57:59.730Z,21.45
2022-08-30T09:00:26.097Z,21.45
2022-08-30T09:02:59.898Z,21.44
2022-08-30T09:05:27.513Z,21.48
2022-08-30T09:08:09.163Z,21.53
2022-08-30T09:10:49.942Z,21.51
2022-08-30T09:13:19.096Z,21.51
2022-08-30T09:15:46.874Z,21.50
2022-08-30T09:18:19.685Z,21.50
2022-08-30T09:20:48.935Z,21.52
2022-08-30T09:23:15.210Z,21.50
2022-08-30T09:25:54.733Z,21.49
2022-08-30T09:28:22.111Z,21.50
2022-08-30T09:31:17.752Z,21.51
2022-08-30T09:34:01.682Z,21.51
2022-08-30T09:36:28.881Z,21.53
2022-08-30T09:39:01.967Z,21.54
2022-08-30T09:41:37.722Z,21.57
2022-08-30T09:44:05.484Z,21.58
2022-08-30T09:46:31.919Z,21.61
2022-08-30T09:48:58.689Z,21.64
2022-08-30T09:51:32.472Z,21.67
2022-08-30T09:54:17.124Z,21.67
2022-08-30T09:57:05.366Z,21.69
2022-08-30T09:59:59.304Z,21.71
2022-08-30T10:02:41.401Z,21.73
2022-08-30T10:05:23.014Z,21.75
2022-08-30T10:07:58.223Z,21.75
2022-08-30T10:10:27.325Z,21.78
2022-08-30T10:12:57.569Z,21.79
2022-08-30T10:15:35.534Z,21.81
2022-08-30T10:18:04.535Z,21.83
2022-08-30T10:20:33.815Z,21.80
2022-08-30T10:23:02.159Z,21.77
2022-08-30T10:25:42.614Z,21.66
2022-08-30T10:28:28.335Z,21.61
2022-08-30T10:30:56.193Z,21.61
2022-08-30T10:33:31.925Z,21.62
2022-08-30T10:35:58.543Z,21.64
2022-08-30T10:38:29.526Z,21.64
2022-08-30T10:41:13.734Z,21.61
2022-08-30T10:43:40.001Z,21.63
2022-08-30T10:46:08.594Z,21.62
2022-08-30T10:48:37.430Z,21.63
2022-08-30T10:51:08.483Z,21.66
2022-08-30T10:53:42.854Z,21.73
2022-08-30T10:56:10.235Z,21.82
2022-08-30T10:58:39.897Z,21.92
2022-08-30T11:04:14.337Z,21.95
2022-08-30T11:06:42.891Z,21.99
2022-08-30T11:09:14.407Z,22.36
2022-08-30T11:11:52.254Z,22.61
2022-08-30T11:14:18.826Z,22.48
2022-08-30T11:16:48.701Z,22.38
2022-08-30T11:19:26.311Z,22.39
2022-08-30T11:21:52.661Z,22.41
2022-08-30T11:24:21.657Z,22.45
2022-08-30T11:26:48.384Z,22.59
2022-08-30T11:29:27.595Z,22.56
2022-08-30T11:31:57.444Z,22.59
2022-08-30T11:34:43.299Z,22.56
2022-08-30T11:37:25.584Z,22.53
2022-08-30T11:39:52.579Z,22.62
2022-08-30T11:42:24.901Z,22.85
2022-08-30T11:45:14.619Z,22.82
2022-08-30T11:47:47.779Z,23.07
2022-08-30T11:50:27.068Z,23.02
2022-08-30T11:52:58.736Z,23.06
2022-08-30T11:55:27.069Z,23.03
2022-08-30T11:58:05.856Z,23.13
2022-08-30T12:00:34.722Z,23.19
2022-08-30T12:03:05.353Z,23.20
2022-08-30T12:05:38.531Z,23.24
2022-08-30T12:08:08.300Z,23.27
2022-08-30T12:10:45.470Z,23.27
2022-08-30T12:13:32.452Z,23.29
2022-08-30T12:16:03.817Z,23.33
2022-08-30T12:18:32.213Z,23.55
2022-08-30T12:21:09.117Z,23.88
2022-08-30T12:23:54.477Z,23.94
2022-08-30T12:26:20.950Z,23.97
2022-08-30T12:28:48.966Z,23.91
2022-08-30T12:31:17.522Z,24.10
2022-08-30T12:33:44.824Z,23.93
2022-08-30T12:36:15.521Z,23.91
2022-08-30T12:38:41.968Z,23.95
2022-08-30T12:41:08.975Z,23.92
2022-08-30T12:43:40.303Z,23.94
2022-08-30T12:46:08.873Z,24.00
2022-08-30T12:48:38.399Z,24.01
2022-08-30T12:51:07.159Z,24.02
2022-08-30T12:53:38.582Z,24.00
2022-08-30T12:56:06.926Z,24.01
2022-08-30T12:58:35.829Z,23.95
2022-08-30T13:01:20.016Z,23.99
2022-08-30T13:04:02.023Z,24.08
2022-08-30T13:06:43.774Z,24.28
2022-08-30T13:09:11.283Z,24.88
2022-08-30T13:11:37.633Z,25.04
2022-08-30T13:14:20.326Z,24.88
2022-08-30T13:16:47.181Z,24.77
2022-08-30T13:19:26.733Z,24.83
2022-08-30T13:21:53.786Z,24.45
2022-08-30T13:24:23.578Z,24.25
2022-08-30T13:26:51.815Z,24.22
2022-08-30T13:29:19.091Z,24.27
2022-08-30T13:31:45.601Z,24.80
2022-08-30T13:34:12.045Z,25.23
2022-08-30T13:36:40.137Z,25.22
2022-08-30T13:39:12.263Z,24.64
2022-08-30T13:41:39.328Z,24.58
2022-08-30T13:44:11.926Z,24.52
2022-08-30T13:46:39.832Z,24.52
2022-08-30T13:52:18.917Z,24.53
2022-08-30T13:54:46.273Z,24.57
2022-08-30T13:57:16.576Z,24.52
2022-08-30T13:59:42.970Z,24.45
2022-08-30T14:02:16.283Z,24.48
2022-08-30T14:04:42.781Z,24.38
2022-08-30T14:07:13.907Z,24.35
2022-08-30T14:09:43.241Z,24.37
2022-08-30T14:12:09.624Z,24.37
2022-08-30T14:14:43.317Z,24.34
2022-08-30T14:17:10.403Z,24.25
2022-08-30T14:19:38.969Z,24.21
2022-08-30T14:22:05.319Z,24.22
2022-08-30T14:24:31.852Z,24.22
2022-08-30T14:26:58.606Z,24.46
2022-08-30T14:29:26.040Z,24.67
2022-08-30T14:31:52.691Z,24.64
2022-08-30T14:34:19.129Z,24.33
2022-08-30T14:36:45.737Z,24.20
2022-08-30T14:39:14.471Z,24.45
2022-08-30T14:41:43.668Z,24.42
2022-08-30T14:44:10.779Z,24.33
2022-08-30T14:46:37.206Z,24.61
2022-08-30T14:49:03.631Z,24.56
2022-08-30T14:51:32.262Z,24.36
2022-08-30T14:54:00.029Z,24.18
2022-08-30T14:56:26.377Z,24.09
2022-08-30T14:58:52.987Z,24.15
2022-08-30T15:01:19.671Z,24.09
2022-08-30T15:03:46.178Z,24.07
2022-08-30T15:06:12.545Z,24.08
2022-08-30T15:08:39.399Z,24.10
2022-08-30T15:11:09.378Z,24.16
2022-08-30T15:13:35.742Z,23.78
2022-08-30T15:16:02.225Z,23.58
2022-08-30T15:18:28.655Z,23.52
2022-08-30T15:20:56.210Z,23.51
2022-08-30T15:23:24.810Z,23.63
2022-08-30T15:25:51.503Z,23.63
2022-08-30T15:28:19.094Z,23.60
2022-08-30T15:30:45.563Z,23.58
2022-08-30T15:33:11.946Z,23.51
2022-08-30T15:35:38.517Z,23.55
2022-08-30T15:38:04.895Z,23.48
2022-08-30T15:40:32.317Z,23.66
2022-08-30T15:42:58.862Z,23.55
2022-08-30T15:45:25.743Z,23.47
2022-08-30T15:47:52.111Z,23.45
2022-08-30T15:50:18.551Z,23.42
2022-08-30T15:52:44.921Z,23.49
2022-08-30T15:55:11.273Z,23.49
2022-08-30T15:57:37.637Z,23.49
2022-08-30T16:00:06.443Z,23.47
2022-08-30T16:02:35.152Z,23.44
2022-08-30T16:05:01.648Z,23.38
2022-08-30T16:07:28.014Z,23.45
2022-08-30T16:09:54.389Z,23.48
2022-08-30T16:12:23.840Z,23.59
2022-08-30T16:14:50.344Z,23.67
2022-08-30T16:17:16.700Z,23.73
2022-08-30T16:19:44.626Z,23.66
2022-08-30T16:22:11.311Z,23.60
2022-08-30T16:24:38.275Z,23.62
2022-08-30T16:27:05.574Z,23.58
2022-08-30T16:29:35.153Z,23.61
2022-08-30T16:32:01.538Z,23.67
2022-08-30T16:34:27.914Z,23.73
2022-08-30T16:36:54.387Z,23.57
2022-08-30T16:39:20.754Z,23.70
2022-08-30T16:41:47.146Z,23.57
2022-08-30T16:44:15.950Z,23.54
2022-08-30T16:46:52.594Z,23.45
2022-08-30T16:49:19.868Z,23.49
2022-08-30T16:51:46.281Z,23.60
2022-08-30T16:54:13.327Z,23.40
2022-08-30T16:56:39.716Z,23.30
2022-08-30T16:59:10.881Z,23.41
2022-08-30T17:01:38.446Z,23.40
2022-08-30T17:04:05.326Z,23.42
2022-08-30T17:06:32.155Z,23.38
2022-08-30T17:08:58.569Z,23.39
2022-08-30T17:11:24.939Z,23.40
2022-08-30T17:13:51.383Z,23.36
2022-08-30T17:16:22.565Z,23.32
2022-08-30T17:18:54.133Z,23.38
2022-08-30T17:21:20.507Z,23.48
2022-08-30T17:23:48.182Z,23.45
2022-08-30T17:26:15.731Z,23.51
2022-08-30T17:28:42.103Z,23.68
2022-08-30T17:31:08.461Z,23.50
2022-08-30T17:33:38.964Z,23.37
2022-08-30T17:36:06.472Z,23.36
2022-08-30T17:38:32.893Z,23.35
2022-08-30T17:41:31.103Z,23.27
2022-08-30T17:43:57.466Z,23.24
2022-08-30T17:46:25.292Z,23.22
2022-08-30T17:48:57.977Z,23.22
2022-08-30T17:51:28.062Z,23.20
2022-08-30T17:53:54.432Z,23.18
2022-08-30T17:56:21.818Z,23.16
2022-08-30T17:58:50.359Z,23.13
2022-08-30T18:01:17.165Z,23.07
2022-08-30T18:03:45.300Z,23.13
2022-08-30T18:06:12.063Z,23.16
2022-08-30T18:08:38.443Z,23.17
2022-08-30T18:11:05.982Z,23.16
2022-08-30T18:13:32.468Z,23.15
2022-08-30T18:16:00.620Z,23.13
2022-08-30T18:18:27.686Z,23.05
2022-08-30T18:20:54.863Z,22.98
2022-08-30T18:23:24.189Z,22.91
2022-08-30T18:25:55.425Z,22.85
2022-08-30T18:28:21.844Z,22.79
2022-08-30T18:30:48.206Z,22.68
2022-08-30T18:33:14.570Z,22.70
2022-08-30T18:35:47.552Z,22.81
2022-08-30T18:38:14.907Z,22.85
2022-08-30T18:40:41.320Z,22.84
2022-08-30T18:43:09.971Z,22.83
2022-08-30T18:45:36.627Z,22.84
2022-08-30T18:48:03.786Z,22.73
2022-08-30T18:50:30.230Z,22.81
2022-08-30T18:52:57.104Z,22.80
2022-08-30T18:55:26.837Z,22.78
2022-08-30T18:57:53.198Z,22.78
2022-08-30T19:00:21.083Z,22.77
2022-08-30T19:02:47.522Z,22.73
2022-08-30T19:05:15.969Z,22.73
2022-08-30T19:07:42.862Z,22.73
2022-08-30T19:10:12.255Z,22.74
2022-08-30T19:12:38.977Z,22.69
2022-08-30T19:15:11.070Z,22.69
2022-08-30T19:17:38.363Z,22.69
2022-08-30T19:20:05.775Z,22.69
2022-08-30T19:23:03.484Z,22.69
2022-08-30T19:25:18.899Z,22.70
2022-08-30T19:27:45.261Z,22.69
2022-08-30T19:30:15.193Z,22.67
2022-08-30T19:32:45.054Z,22.69
2022-08-30T19:35:13.658Z,22.66
2022-08-30T19:37:44.202Z,22.60
2022-08-30T19:40:11.458Z,22.64
2022-08-30T19:42:43.243Z,22.55
2022-08-30T19:45:12.763Z,22.56
2022-08-30T19:47:39.151Z,22.55
2022-08-30T19:50:05.877Z,22.58
2022-08-30T19:52:32.249Z,22.59
2022-08-30T19:54:59.159Z,22.57
2022-08-30T19:57:25.546Z,22.57
2022-08-30T19:59:51.935Z,22.61
2022-08-30T20:02:18.370Z,22.57
2022-08-30T20:04:45.008Z,22.58
2022-08-30T20:07:14.271Z,22.54
2022-08-30T20:09:40.710Z,22.52
2022-08-30T20:12:07.185Z,22.57
2022-08-30T20:14:33.541Z,22.53
2022-08-30T20:16:59.939Z,22.55
2022-08-30T20:19:29.320Z,22.57
2022-08-30T20:21:55.912Z,22.54
2022-08-30T20:24:32.045Z,22.57
2022-08-30T20:26:58.478Z,22.55
2022-08-30T20:29:24.823Z,22.54
2022-08-30T20:31:51.188Z,22.51
2022-08-30T20:34:17.546Z,22.42
2022-08-30T20:36:43.901Z,22.44
2022-08-30T20:39:10.251Z,22.45
2022-08-30T20:41:42.920Z,22.49
2022-08-30T20:44:11.929Z,22.48
2022-08-30T20:46:45.033Z,22.47
2022-08-30T20:49:11.684Z,22.47
2022-08-30T20:51:39.497Z,22.47
2022-08-30T20:54:05.919Z,22.45
2022-08-30T20:56:34.233Z,22.46
2022-08-30T20:59:02.499Z,22.39
2022-08-30T21:01:30.487Z,22.40
2022-08-30T21:03:56.899Z,22.36
2022-08-30T21:06:23.413Z,22.37
2022-08-30T21:08:49.761Z,22.36
2022-08-30T21:11:16.166Z,22.34
2022-08-30T21:13:42.661Z,22.31
2022-08-30T21:16:09.026Z,22.26
2022-08-30T21:18:38.693Z,22.26
2022-08-30T21:21:15.811Z,22.21
2022-08-30T21:23:42.770Z,22.25
2022-08-30T21:26:09.147Z,22.26
2022-08-30T21:28:35.509Z,22.16
2022-08-30T21:31:05.592Z,22.12
2022-08-30T21:33:32.009Z,22.10
2022-08-30T21:36:17.050Z,22.11
2022-08-30T21:38:43.792Z,22.09
2022-08-30T21:41:10.286Z,22.09
2022-08-30T21:43:36.646Z,22.07
2022-08-30T21:46:06.816Z,22.08
2022-08-30T21:48:33.817Z,22.03
2022-08-30T21:51:07.293Z,22.01
2022-08-30T21:53:33.687Z,22.00
2022-08-30T21:56:06.289Z,22.00
2022-08-30T21:58:32.839Z,22.03
2022-08-30T22:00:59.243Z,22.02
2022-08-30T22:03:25.718Z,22.03
2022-08-30T22:05:52.416Z,22.07
2022-08-30T22:08:18.767Z,21.98
2022-08-30T22:10:45.138Z,22.07
2022-08-30T22:13:12.979Z,22.06
2022-08-30T22:15:39.913Z,22.03
2022-08-30T22:18:06.275Z,22.00
2022-08-30T22:20:32.655Z,22.06
2022-08-30T22:22:59.030Z,21.99
2022-08-30T22:25:25.418Z,22.02
2022-08-30T22:27:51.993Z,21.99
2022-08-30T22:30:18.360Z,21.96
2022-08-30T22:32:44.747Z,21.91
2022-08-30T22:35:11.369Z,21.94
2022-08-30T22:37:37.730Z,21.93
2022-08-30T22:40:04.126Z,21.95
2022-08-30T22:42:30.499Z,21.94
2022-08-30T22:44:56.871Z,21.98
2022-08-30T22:47:23.265Z,22.00
2022-08-30T22:49:49.655Z,22.00
2022-08-30T22:52:16.036Z,21.94
2022-08-30T22:54:42.393Z,21.97
2022-08-30T22:57:10.277Z,21.92
2022-08-30T22:59:36.835Z,21.99
2022-08-30T23:02:03.459Z,22.02
2022-08-30T23:04:30.523Z,21.96
2022-08-30T23:06:56.893Z,21.95
2022-08-30T23:09:23.283Z,21.91
2022-08-30T23:11:49.646Z,21.89
2022-08-30T23:14:16.094Z,21.91
2022-08-30T23:16:42.485Z,21.92
2022-08-30T23:19:09.058Z,21.92
2022-08-30T23:21:35.422Z,21.91
2022-08-30T23:24:20.252Z,21.91
2022-08-30T23:27:05.251Z,21.88
2022-08-30T23:29:50.103Z,21.95
2022-08-30T23:32:34.982Z,21.84
2022-08-30T23:35:19.784Z,21.84
2022-08-30T23:38:05.140Z,21.89
2022-08-30T23:40:50.121Z,21.96
2022-08-30T23:43:34.869Z,21.95
2022-08-30T23:46:19.931Z,21.96
2022-08-30T23:49:05.613Z,21.90
2022-08-30T23:51:50.618Z,21.93
2022-08-30T23:54:35.461Z,21.96
2022-08-30T23:57:20.436Z,21.91
